sensor_id;sensor_type;location;lat;lon;timestamp;P1;durP1;ratioP1;P2;durP2;ratioP2
21503;SDS011;10913;51.992;9.228;2023-11-21T00:01:57;17.42;;;11.57;;
21503;SDS011;10913;51.992;9.228;2023-11-21T00:04:23;16.33;;;11.05;;
21503;SDS011;10913;51.992;9.228;2023-11-21T00:06:49;18.10;;;11.05;;
21503;SDS011;10913;51.992;9.228;2023-11-21T00:09:14;17.45;;;10.70;;
21503;SDS011;10913;51.992;9.228;2023-11-21T00:11:40;19.60;;;11.60;;
21503;SDS011;10913;51.992;9.228;2023-11-21T00:14:06;22.52;;;12.25;;
21503;SDS011;10913;51.992;9.228;2023-11-21T00:16:33;18.85;;;11.90;;
21503;SDS011;10913;51.992;9.228;2023-11-21T00:18:59;18.25;;;11.52;;
21503;SDS011;10913;51.992;9.228;2023-11-21T00:21:24;19.70;;;12.35;;
21503;SDS011;10913;51.992;9.228;2023-11-21T00:23:49;21.17;;;13.20;;
21503;SDS011;10913;51.992;9.228;2023-11-21T00:26:15;19.65;;;12.25;;
21503;SDS011;10913;51.992;9.228;2023-11-21T00:28:40;22.92;;;12.93;;
21503;SDS011;10913;51.992;9.228;2023-11-21T00:31:05;19.92;;;12.07;;
21503;SDS011;10913;51.992;9.228;2023-11-21T00:33:31;21.05;;;12.45;;
21503;SDS011;10913;51.992;9.228;2023-11-21T00:35:56;22.65;;;13.65;;
21503;SDS011;10913;51.992;9.228;2023-11-21T00:38:22;21.90;;;13.05;;
21503;SDS011;10913;51.992;9.228;2023-11-21T00:40:47;20.25;;;11.75;;
21503;SDS011;10913;51.992;9.228;2023-11-21T00:43:12;19.50;;;12.15;;
21503;SDS011;10913;51.992;9.228;2023-11-21T00:45:38;18.08;;;11.75;;
21503;SDS011;10913;51.992;9.228;2023-11-21T00:48:05;21.27;;;12.10;;
21503;SDS011;10913;51.992;9.228;2023-11-21T00:50:30;18.50;;;12.57;;
21503;SDS011;10913;51.992;9.228;2023-11-21T00:52:56;17.85;;;11.77;;
21503;SDS011;10913;51.992;9.228;2023-11-21T00:55:21;18.13;;;11.75;;
21503;SDS011;10913;51.992;9.228;2023-11-21T00:57:47;18.25;;;12.18;;
21503;SDS011;10913;51.992;9.228;2023-11-21T01:00:13;17.95;;;11.98;;
21503;SDS011;10913;51.992;9.228;2023-11-21T01:02:42;21.27;;;12.02;;
21503;SDS011;10913;51.992;9.228;2023-11-21T01:05:09;21.48;;;13.25;;
21503;SDS011;10913;51.992;9.228;2023-11-21T01:07:35;28.08;;;14.55;;
21503;SDS011;10913;51.992;9.228;2023-11-21T01:10:01;22.58;;;13.65;;
21503;SDS011;10913;51.992;9.228;2023-11-21T01:12:28;20.20;;;12.43;;
21503;SDS011;10913;51.992;9.228;2023-11-21T01:14:53;20.52;;;12.60;;
21503;SDS011;10913;51.992;9.228;2023-11-21T01:17:19;22.15;;;12.95;;
21503;SDS011;10913;51.992;9.228;2023-11-21T01:19:44;23.98;;;13.32;;
21503;SDS011;10913;51.992;9.228;2023-11-21T01:22:09;24.70;;;13.18;;
21503;SDS011;10913;51.992;9.228;2023-11-21T01:24:37;24.45;;;14.75;;
21503;SDS011;10913;51.992;9.228;2023-11-21T01:27:02;23.38;;;13.75;;
21503;SDS011;10913;51.992;9.228;2023-11-21T01:29:29;21.48;;;13.75;;
21503;SDS011;10913;51.992;9.228;2023-11-21T01:31:54;22.83;;;13.18;;
21503;SDS011;10913;51.992;9.228;2023-11-21T01:34:20;23.77;;;15.02;;
21503;SDS011;10913;51.992;9.228;2023-11-21T01:36:46;27.75;;;14.05;;
21503;SDS011;10913;51.992;9.228;2023-11-21T01:39:12;30.67;;;16.80;;
21503;SDS011;10913;51.992;9.228;2023-11-21T01:41:40;33.08;;;16.48;;
21503;SDS011;10913;51.992;9.228;2023-11-21T01:44:05;29.83;;;17.33;;
21503;SDS011;10913;51.992;9.228;2023-11-21T01:46:34;30.88;;;17.10;;
21503;SDS011;10913;51.992;9.228;2023-11-21T01:49:00;30.85;;;16.85;;
21503;SDS011;10913;51.992;9.228;2023-11-21T01:51:25;29.52;;;15.65;;
21503;SDS011;10913;51.992;9.228;2023-11-21T01:53:51;27.58;;;15.80;;
21503;SDS011;10913;51.992;9.228;2023-11-21T01:56:17;29.88;;;15.40;;
21503;SDS011;10913;51.992;9.228;2023-11-21T01:58:43;31.02;;;16.42;;
21503;SDS011;10913;51.992;9.228;2023-11-21T02:01:09;29.35;;;16.40;;
21503;SDS011;10913;51.992;9.228;2023-11-21T02:03:35;26.52;;;15.20;;
21503;SDS011;10913;51.992;9.228;2023-11-21T02:06:01;31.63;;;16.65;;
21503;SDS011;10913;51.992;9.228;2023-11-21T02:08:26;27.23;;;16.52;;
21503;SDS011;10913;51.992;9.228;2023-11-21T02:10:52;26.08;;;15.00;;
21503;SDS011;10913;51.992;9.228;2023-11-21T02:13:17;32.95;;;16.25;;
21503;SDS011;10913;51.992;9.228;2023-11-21T02:15:43;27.27;;;15.63;;
21503;SDS011;10913;51.992;9.228;2023-11-21T02:18:08;25.52;;;15.57;;
21503;SDS011;10913;51.992;9.228;2023-11-21T02:20:36;29.52;;;16.70;;
21503;SDS011;10913;51.992;9.228;2023-11-21T02:23:03;31.48;;;15.90;;
21503;SDS011;10913;51.992;9.228;2023-11-21T02:25:31;31.13;;;17.52;;
21503;SDS011;10913;51.992;9.228;2023-11-21T02:27:57;27.50;;;16.63;;
21503;SDS011;10913;51.992;9.228;2023-11-21T02:30:23;31.40;;;16.73;;
21503;SDS011;10913;51.992;9.228;2023-11-21T02:32:53;25.05;;;14.98;;
21503;SDS011;10913;51.992;9.228;2023-11-21T02:35:18;31.65;;;16.42;;
21503;SDS011;10913;51.992;9.228;2023-11-21T02:37:46;28.13;;;15.82;;
21503;SDS011;10913;51.992;9.228;2023-11-21T02:40:12;24.05;;;14.98;;
21503;SDS011;10913;51.992;9.228;2023-11-21T02:42:38;26.20;;;16.05;;
21503;SDS011;10913;51.992;9.228;2023-11-21T02:45:05;27.13;;;15.43;;
21503;SDS011;10913;51.992;9.228;2023-11-21T02:47:31;26.45;;;14.60;;
21503;SDS011;10913;51.992;9.228;2023-11-21T02:49:56;25.77;;;15.65;;
21503;SDS011;10913;51.992;9.228;2023-11-21T02:52:21;22.42;;;14.60;;
21503;SDS011;10913;51.992;9.228;2023-11-21T02:54:47;28.02;;;15.43;;
21503;SDS011;10913;51.992;9.228;2023-11-21T02:57:12;23.10;;;13.95;;
21503;SDS011;10913;51.992;9.228;2023-11-21T02:59:38;24.92;;;14.50;;
21503;SDS011;10913;51.992;9.228;2023-11-21T03:02:04;22.88;;;14.35;;
21503;SDS011;10913;51.992;9.228;2023-11-21T03:04:29;25.80;;;14.63;;
21503;SDS011;10913;51.992;9.228;2023-11-21T03:06:57;23.08;;;14.63;;
21503;SDS011;10913;51.992;9.228;2023-11-21T03:09:23;25.20;;;14.73;;
21503;SDS011;10913;51.992;9.228;2023-11-21T03:11:48;25.48;;;14.38;;
21503;SDS011;10913;51.992;9.228;2023-11-21T03:14:13;23.35;;;14.23;;
21503;SDS011;10913;51.992;9.228;2023-11-21T03:16:39;26.80;;;14.45;;
21503;SDS011;10913;51.992;9.228;2023-11-21T03:19:06;22.55;;;13.70;;
21503;SDS011;10913;51.992;9.228;2023-11-21T03:21:33;25.25;;;14.05;;
21503;SDS011;10913;51.992;9.228;2023-11-21T03:23:58;20.67;;;13.20;;
21503;SDS011;10913;51.992;9.228;2023-11-21T03:26:25;24.58;;;14.13;;
21503;SDS011;10913;51.992;9.228;2023-11-21T03:28:50;25.00;;;12.70;;
21503;SDS011;10913;51.992;9.228;2023-11-21T03:31:18;23.15;;;12.93;;
21503;SDS011;10913;51.992;9.228;2023-11-21T03:33:44;26.17;;;13.55;;
21503;SDS011;10913;51.992;9.228;2023-11-21T03:36:10;21.33;;;13.70;;
21503;SDS011;10913;51.992;9.228;2023-11-21T03:38:36;23.63;;;14.13;;
21503;SDS011;10913;51.992;9.228;2023-11-21T03:41:01;21.85;;;13.18;;
21503;SDS011;10913;51.992;9.228;2023-11-21T03:43:27;21.67;;;12.82;;
21503;SDS011;10913;51.992;9.228;2023-11-21T03:45:52;23.33;;;13.30;;
21503;SDS011;10913;51.992;9.228;2023-11-21T03:48:18;23.42;;;12.25;;
21503;SDS011;10913;51.992;9.228;2023-11-21T03:50:43;25.15;;;12.48;;
21503;SDS011;10913;51.992;9.228;2023-11-21T03:53:08;23.20;;;12.88;;
21503;SDS011;10913;51.992;9.228;2023-11-21T03:55:34;24.33;;;13.27;;
21503;SDS011;10913;51.992;9.228;2023-11-21T03:57:59;23.08;;;13.38;;
21503;SDS011;10913;51.992;9.228;2023-11-21T04:00:25;22.98;;;12.93;;
21503;SDS011;10913;51.992;9.228;2023-11-21T04:02:54;23.15;;;13.25;;
21503;SDS011;10913;51.992;9.228;2023-11-21T04:05:20;28.98;;;14.02;;
21503;SDS011;10913;51.992;9.228;2023-11-21T04:07:47;21.60;;;12.93;;
21503;SDS011;10913;51.992;9.228;2023-11-21T04:10:14;23.85;;;12.95;;
21503;SDS011;10913;51.992;9.228;2023-11-21T04:12:40;20.63;;;12.90;;
21503;SDS011;10913;51.992;9.228;2023-11-21T04:15:06;26.23;;;13.20;;
21503;SDS011;10913;51.992;9.228;2023-11-21T04:17:34;21.20;;;12.68;;
21503;SDS011;10913;51.992;9.228;2023-11-21T04:19:59;24.00;;;12.85;;
21503;SDS011;10913;51.992;9.228;2023-11-21T04:22:25;22.63;;;12.57;;
21503;SDS011;10913;51.992;9.228;2023-11-21T04:24:50;29.02;;;13.05;;
21503;SDS011;10913;51.992;9.228;2023-11-21T04:27:16;19.85;;;12.25;;
21503;SDS011;10913;51.992;9.228;2023-11-21T04:29:45;24.10;;;12.68;;
21503;SDS011;10913;51.992;9.228;2023-11-21T04:32:10;21.58;;;11.65;;
21503;SDS011;10913;51.992;9.228;2023-11-21T04:34:36;21.42;;;11.80;;
21503;SDS011;10913;51.992;9.228;2023-11-21T04:37:01;22.63;;;11.98;;
21503;SDS011;10913;51.992;9.228;2023-11-21T04:39:28;16.65;;;10.75;;
21503;SDS011;10913;51.992;9.228;2023-11-21T04:41:53;18.58;;;11.30;;
21503;SDS011;10913;51.992;9.228;2023-11-21T04:44:18;23.23;;;13.25;;
21503;SDS011;10913;51.992;9.228;2023-11-21T04:46:44;23.23;;;11.63;;
21503;SDS011;10913;51.992;9.228;2023-11-21T04:49:09;21.48;;;13.30;;
21503;SDS011;10913;51.992;9.228;2023-11-21T04:51:35;26.10;;;14.25;;
21503;SDS011;10913;51.992;9.228;2023-11-21T04:54:01;27.75;;;14.23;;
21503;SDS011;10913;51.992;9.228;2023-11-21T04:56:26;26.25;;;14.43;;
21503;SDS011;10913;51.992;9.228;2023-11-21T04:58:52;24.98;;;13.48;;
21503;SDS011;10913;51.992;9.228;2023-11-21T05:01:18;24.17;;;13.73;;
21503;SDS011;10913;51.992;9.228;2023-11-21T05:03:44;25.10;;;13.70;;
21503;SDS011;10913;51.992;9.228;2023-11-21T05:06:09;26.33;;;13.38;;
21503;SDS011;10913;51.992;9.228;2023-11-21T05:08:35;27.23;;;14.57;;
21503;SDS011;10913;51.992;9.228;2023-11-21T05:11:02;24.23;;;13.90;;
21503;SDS011;10913;51.992;9.228;2023-11-21T05:13:27;27.83;;;14.68;;
21503;SDS011;10913;51.992;9.228;2023-11-21T05:15:54;23.48;;;14.52;;
21503;SDS011;10913;51.992;9.228;2023-11-21T05:18:20;25.50;;;14.50;;
21503;SDS011;10913;51.992;9.228;2023-11-21T05:20:45;26.38;;;15.20;;
21503;SDS011;10913;51.992;9.228;2023-11-21T05:23:12;25.17;;;14.57;;
21503;SDS011;10913;51.992;9.228;2023-11-21T05:25:37;26.60;;;15.63;;
21503;SDS011;10913;51.992;9.228;2023-11-21T05:28:03;25.65;;;14.40;;
21503;SDS011;10913;51.992;9.228;2023-11-21T05:30:29;22.70;;;12.85;;
21503;SDS011;10913;51.992;9.228;2023-11-21T05:32:54;24.80;;;13.55;;
21503;SDS011;10913;51.992;9.228;2023-11-21T05:35:20;25.17;;;15.05;;
21503;SDS011;10913;51.992;9.228;2023-11-21T05:37:46;24.88;;;13.23;;
21503;SDS011;10913;51.992;9.228;2023-11-21T05:40:11;23.80;;;13.77;;
21503;SDS011;10913;51.992;9.228;2023-11-21T05:42:38;25.02;;;13.23;;
21503;SDS011;10913;51.992;9.228;2023-11-21T05:45:04;22.95;;;12.90;;
21503;SDS011;10913;51.992;9.228;2023-11-21T05:47:40;24.77;;;14.00;;
21503;SDS011;10913;51.992;9.228;2023-11-21T05:50:07;23.23;;;14.52;;
21503;SDS011;10913;51.992;9.228;2023-11-21T05:52:40;29.23;;;15.43;;
21503;SDS011;10913;51.992;9.228;2023-11-21T05:55:06;22.88;;;14.43;;
21503;SDS011;10913;51.992;9.228;2023-11-21T05:57:36;25.98;;;15.52;;
21503;SDS011;10913;51.992;9.228;2023-11-21T06:00:09;24.40;;;15.18;;
21503;SDS011;10913;51.992;9.228;2023-11-21T06:02:40;23.88;;;13.93;;
21503;SDS011;10913;51.992;9.228;2023-11-21T06:05:07;27.90;;;15.90;;
21503;SDS011;10913;51.992;9.228;2023-11-21T06:07:33;30.67;;;18.65;;
21503;SDS011;10913;51.992;9.228;2023-11-21T06:09:58;31.88;;;17.20;;
21503;SDS011;10913;51.992;9.228;2023-11-21T06:12:24;35.95;;;19.10;;
21503;SDS011;10913;51.992;9.228;2023-11-21T06:14:50;31.05;;;18.05;;
21503;SDS011;10913;51.992;9.228;2023-11-21T06:17:16;71.50;;;39.88;;
21503;SDS011;10913;51.992;9.228;2023-11-21T06:19:41;154.32;;;88.55;;
21503;SDS011;10913;51.992;9.228;2023-11-21T06:22:07;48.22;;;29.13;;
21503;SDS011;10913;51.992;9.228;2023-11-21T06:24:33;35.60;;;21.52;;
21503;SDS011;10913;51.992;9.228;2023-11-21T06:26:59;30.05;;;20.27;;
21503;SDS011;10913;51.992;9.228;2023-11-21T06:29:24;30.30;;;18.15;;
21503;SDS011;10913;51.992;9.228;2023-11-21T06:31:50;30.33;;;19.63;;
21503;SDS011;10913;51.992;9.228;2023-11-21T06:34:15;30.13;;;17.77;;
21503;SDS011;10913;51.992;9.228;2023-11-21T06:36:41;32.15;;;19.23;;
21503;SDS011;10913;51.992;9.228;2023-11-21T06:39:06;32.03;;;19.48;;
21503;SDS011;10913;51.992;9.228;2023-11-21T06:41:33;32.28;;;20.42;;
21503;SDS011;10913;51.992;9.228;2023-11-21T06:43:59;33.88;;;18.38;;
21503;SDS011;10913;51.992;9.228;2023-11-21T06:46:24;30.00;;;18.73;;
21503;SDS011;10913;51.992;9.228;2023-11-21T06:48:49;30.10;;;20.05;;
21503;SDS011;10913;51.992;9.228;2023-11-21T06:51:15;34.80;;;20.40;;
21503;SDS011;10913;51.992;9.228;2023-11-21T06:53:41;33.80;;;21.02;;
21503;SDS011;10913;51.992;9.228;2023-11-21T06:56:15;34.13;;;21.83;;
21503;SDS011;10913;51.992;9.228;2023-11-21T06:58:41;35.13;;;22.08;;
21503;SDS011;10913;51.992;9.228;2023-11-21T07:01:06;31.10;;;21.00;;
21503;SDS011;10913;51.992;9.228;2023-11-21T07:03:32;31.10;;;19.58;;
21503;SDS011;10913;51.992;9.228;2023-11-21T07:05:57;31.02;;;19.67;;
21503;SDS011;10913;51.992;9.228;2023-11-21T07:08:22;30.67;;;18.63;;
21503;SDS011;10913;51.992;9.228;2023-11-21T07:10:48;29.52;;;19.48;;
21503;SDS011;10913;51.992;9.228;2023-11-21T07:13:14;30.40;;;19.40;;
21503;SDS011;10913;51.992;9.228;2023-11-21T07:15:40;32.38;;;20.02;;
21503;SDS011;10913;51.992;9.228;2023-11-21T07:18:05;26.88;;;18.15;;
21503;SDS011;10913;51.992;9.228;2023-11-21T07:20:32;30.45;;;18.48;;
21503;SDS011;10913;51.992;9.228;2023-11-21T07:22:58;34.78;;;19.45;;
21503;SDS011;10913;51.992;9.228;2023-11-21T07:25:24;30.90;;;19.33;;
21503;SDS011;10913;51.992;9.228;2023-11-21T07:27:49;32.90;;;18.15;;
21503;SDS011;10913;51.992;9.228;2023-11-21T07:30:15;29.40;;;18.90;;
21503;SDS011;10913;51.992;9.228;2023-11-21T07:32:40;31.52;;;18.52;;
21503;SDS011;10913;51.992;9.228;2023-11-21T07:35:06;36.15;;;19.83;;
21503;SDS011;10913;51.992;9.228;2023-11-21T07:37:33;30.13;;;17.45;;
21503;SDS011;10913;51.992;9.228;2023-11-21T07:39:58;30.85;;;19.05;;
21503;SDS011;10913;51.992;9.228;2023-11-21T07:42:23;34.13;;;19.55;;
21503;SDS011;10913;51.992;9.228;2023-11-21T07:44:51;35.38;;;20.50;;
21503;SDS011;10913;51.992;9.228;2023-11-21T07:47:17;31.02;;;17.85;;
21503;SDS011;10913;51.992;9.228;2023-11-21T07:49:42;30.88;;;18.42;;
21503;SDS011;10913;51.992;9.228;2023-11-21T07:52:09;32.72;;;19.05;;
21503;SDS011;10913;51.992;9.228;2023-11-21T07:54:35;32.35;;;19.63;;
21503;SDS011;10913;51.992;9.228;2023-11-21T07:57:01;32.83;;;18.83;;
21503;SDS011;10913;51.992;9.228;2023-11-21T07:59:26;29.27;;;18.27;;
21503;SDS011;10913;51.992;9.228;2023-11-21T08:01:52;33.65;;;18.60;;
21503;SDS011;10913;51.992;9.228;2023-11-21T08:04:17;32.45;;;18.35;;
21503;SDS011;10913;51.992;9.228;2023-11-21T08:06:43;35.75;;;21.40;;
21503;SDS011;10913;51.992;9.228;2023-11-21T08:09:08;53.72;;;40.70;;
21503;SDS011;10913;51.992;9.228;2023-11-21T08:11:34;47.25;;;34.70;;
21503;SDS011;10913;51.992;9.228;2023-11-21T08:13:59;43.17;;;21.88;;
21503;SDS011;10913;51.992;9.228;2023-11-21T08:16:25;37.67;;;20.30;;
21503;SDS011;10913;51.992;9.228;2023-11-21T08:18:50;31.90;;;18.15;;
21503;SDS011;10913;51.992;9.228;2023-11-21T08:21:16;33.83;;;19.65;;
21503;SDS011;10913;51.992;9.228;2023-11-21T08:23:41;35.60;;;21.02;;
21503;SDS011;10913;51.992;9.228;2023-11-21T08:26:07;32.40;;;18.98;;
21503;SDS011;10913;51.992;9.228;2023-11-21T08:28:33;37.38;;;19.15;;
21503;SDS011;10913;51.992;9.228;2023-11-21T08:31:00;32.95;;;19.50;;
21503;SDS011;10913;51.992;9.228;2023-11-21T08:33:26;38.20;;;21.10;;
21503;SDS011;10913;51.992;9.228;2023-11-21T08:35:51;37.65;;;20.58;;
21503;SDS011;10913;51.992;9.228;2023-11-21T08:38:16;35.63;;;21.65;;
21503;SDS011;10913;51.992;9.228;2023-11-21T08:40:42;39.40;;;21.27;;
21503;SDS011;10913;51.992;9.228;2023-11-21T08:43:08;38.10;;;20.90;;
21503;SDS011;10913;51.992;9.228;2023-11-21T08:45:33;32.38;;;20.08;;
21503;SDS011;10913;51.992;9.228;2023-11-21T08:48:02;43.55;;;22.67;;
21503;SDS011;10913;51.992;9.228;2023-11-21T08:50:28;38.67;;;21.20;;
21503;SDS011;10913;51.992;9.228;2023-11-21T08:52:53;35.45;;;19.85;;
21503;SDS011;10913;51.992;9.228;2023-11-21T08:55:19;36.50;;;20.67;;
21503;SDS011;10913;51.992;9.228;2023-11-21T08:57:45;38.13;;;20.40;;
21503;SDS011;10913;51.992;9.228;2023-11-21T09:00:11;38.42;;;22.20;;
21503;SDS011;10913;51.992;9.228;2023-11-21T09:02:40;35.30;;;20.52;;
21503;SDS011;10913;51.992;9.228;2023-11-21T09:05:10;40.75;;;22.63;;
21503;SDS011;10913;51.992;9.228;2023-11-21T09:07:36;38.20;;;21.13;;
21503;SDS011;10913;51.992;9.228;2023-11-21T09:10:03;34.10;;;20.40;;
21503;SDS011;10913;51.992;9.228;2023-11-21T09:12:29;35.67;;;20.77;;
21503;SDS011;10913;51.992;9.228;2023-11-21T09:14:54;32.17;;;19.38;;
21503;SDS011;10913;51.992;9.228;2023-11-21T09:17:19;32.83;;;20.50;;
21503;SDS011;10913;51.992;9.228;2023-11-21T09:19:45;31.23;;;19.50;;
21503;SDS011;10913;51.992;9.228;2023-11-21T09:22:14;22.13;;;14.77;;
21503;SDS011;10913;51.992;9.228;2023-11-21T09:24:40;18.25;;;10.98;;
21503;SDS011;10913;51.992;9.228;2023-11-21T09:27:06;15.10;;;10.18;;
21503;SDS011;10913;51.992;9.228;2023-11-21T09:29:31;14.60;;;10.20;;
21503;SDS011;10913;51.992;9.228;2023-11-21T09:31:57;9.77;;;7.38;;
21503;SDS011;10913;51.992;9.228;2023-11-21T09:34:24;7.63;;;5.15;;
21503;SDS011;10913;51.992;9.228;2023-11-21T09:36:50;6.85;;;4.97;;
21503;SDS011;10913;51.992;9.228;2023-11-21T09:39:16;8.40;;;6.25;;
21503;SDS011;10913;51.992;9.228;2023-11-21T09:41:43;9.18;;;6.15;;
21503;SDS011;10913;51.992;9.228;2023-11-21T09:44:14;9.70;;;6.25;;
21503;SDS011;10913;51.992;9.228;2023-11-21T09:46:44;9.48;;;6.72;;
21503;SDS011;10913;51.992;9.228;2023-11-21T09:49:14;11.15;;;7.57;;
21503;SDS011;10913;51.992;9.228;2023-11-21T09:51:43;9.13;;;6.28;;
21503;SDS011;10913;51.992;9.228;2023-11-21T09:54:10;8.73;;;5.95;;
21503;SDS011;10913;51.992;9.228;2023-11-21T09:56:37;5.82;;;4.68;;
21503;SDS011;10913;51.992;9.228;2023-11-21T09:59:03;4.70;;;3.78;;
21503;SDS011;10913;51.992;9.228;2023-11-21T10:01:32;3.33;;;2.90;;
21503;SDS011;10913;51.992;9.228;2023-11-21T10:03:59;3.22;;;2.90;;
21503;SDS011;10913;51.992;9.228;2023-11-21T10:06:25;4.13;;;3.42;;
21503;SDS011;10913;51.992;9.228;2023-11-21T10:08:52;13.98;;;11.32;;
21503;SDS011;10913;51.992;9.228;2023-11-21T10:11:18;6.75;;;5.68;;
21503;SDS011;10913;51.992;9.228;2023-11-21T10:13:44;7.93;;;6.05;;
21503;SDS011;10913;51.992;9.228;2023-11-21T10:16:11;6.50;;;5.38;;
21503;SDS011;10913;51.992;9.228;2023-11-21T10:18:41;7.43;;;5.78;;
21503;SDS011;10913;51.992;9.228;2023-11-21T10:21:07;2.55;;;2.35;;
21503;SDS011;10913;51.992;9.228;2023-11-21T10:23:34;5.78;;;4.57;;
21503;SDS011;10913;51.992;9.228;2023-11-21T10:25:59;2.38;;;2.17;;
21503;SDS011;10913;51.992;9.228;2023-11-21T10:28:26;2.30;;;2.10;;
21503;SDS011;10913;51.992;9.228;2023-11-21T10:30:51;2.38;;;2.17;;
21503;SDS011;10913;51.992;9.228;2023-11-21T10:33:17;2.63;;;2.35;;
21503;SDS011;10913;51.992;9.228;2023-11-21T10:35:52;2.50;;;2.30;;
21503;SDS011;10913;51.992;9.228;2023-11-21T10:38:19;2.40;;;2.20;;
21503;SDS011;10913;51.992;9.228;2023-11-21T10:40:49;2.35;;;2.15;;
21503;SDS011;10913;51.992;9.228;2023-11-21T10:43:15;2.35;;;2.10;;
21503;SDS011;10913;51.992;9.228;2023-11-21T10:45:42;2.60;;;2.40;;
21503;SDS011;10913;51.992;9.228;2023-11-21T10:48:14;2.55;;;2.35;;
21503;SDS011;10913;51.992;9.228;2023-11-21T10:50:40;2.70;;;2.35;;
21503;SDS011;10913;51.992;9.228;2023-11-21T10:53:06;2.70;;;2.50;;
21503;SDS011;10913;51.992;9.228;2023-11-21T10:55:33;2.78;;;2.40;;
21503;SDS011;10913;51.992;9.228;2023-11-21T10:58:01;2.03;;;1.92;;
21503;SDS011;10913;51.992;9.228;2023-11-21T11:00:28;2.60;;;2.40;;
21503;SDS011;10913;51.992;9.228;2023-11-21T11:02:54;2.72;;;2.53;;
21503;SDS011;10913;51.992;9.228;2023-11-21T11:05:21;2.80;;;2.60;;
21503;SDS011;10913;51.992;9.228;2023-11-21T11:08:08;3.67;;;3.30;;
21503;SDS011;10913;51.992;9.228;2023-11-21T11:10:38;2.90;;;2.70;;
21503;SDS011;10913;51.992;9.228;2023-11-21T11:13:03;3.13;;;2.83;;
21503;SDS011;10913;51.992;9.228;2023-11-21T11:15:29;2.70;;;2.50;;
21503;SDS011;10913;51.992;9.228;2023-11-21T11:17:54;3.90;;;3.38;;
21503;SDS011;10913;51.992;9.228;2023-11-21T11:20:25;3.08;;;2.78;;
21503;SDS011;10913;51.992;9.228;2023-11-21T11:28:35;5.30;;;4.80;;
21503;SDS011;10913;51.992;9.228;2023-11-21T11:31:36;7.93;;;6.53;;
21503;SDS011;10913;51.992;9.228;2023-11-21T11:37:00;7.00;;;5.90;;
